Time;durP1;ratioP1;P1;durP2;ratioP2;P2;SDS_P1;SDS_P2;PMS_P1;PMS_P2;Temp;Humidity;BMP_temperature;BMP_pressure;BME280_temperature;BME280_humidity;BME280_pressure;Samples;Min_cycle;Max_cycle;Signal;HPM_P1;HPM_P2
2023/09/03 00:02:14;;;;;;;9.43;5.15;;;;;;;;;;5063027;28;20040;-63
2023/09/03 00:04:40;;;;;;;3.50;2.22;;;;;;;;;;5063958;28;20036;-63
2023/09/03 00:07:09;;;;;;;5.15;3.35;;;;;;;;;;5062308;28;20039;-63
2023/09/03 00:09:35;;;;;;;6.97;5.47;;;;;;;;;;5062441;28;20663;-63
2023/09/03 00:12:02;;;;;;;7.57;5.97;;;;;;;;;;5062066;28;20032;-63
2023/09/03 00:14:28;;;;;;;7.70;5.82;;;;;;;;;;5063096;28;20158;-63
2023/09/03 00:16:54;;;;;;;8.88;6.65;;;;;;;;;;5063920;28;20055;-63
2023/09/03 00:19:20;;;;;;;9.52;6.47;;;;;;;;;;5062324;28;20028;-63
2023/09/03 00:21:46;;;;;;;8.00;5.72;;;;;;;;;;5061633;28;21267;-63
2023/09/03 00:24:12;;;;;;;7.72;5.38;;;;;;;;;;5062313;28;20043;-63
2023/09/03 00:26:38;;;;;;;8.60;5.95;;;;;;;;;;5063356;28;20035;-63
2023/09/03 00:29:04;;;;;;;7.40;5.72;;;;;;;;;;5061438;28;20521;-63
2023/09/03 00:31:32;;;;;;;8.10;5.43;;;;;;;;;;5061615;28;20036;-63
2023/09/03 00:33:59;;;;;;;7.68;5.15;;;;;;;;;;5062482;28;20035;-63
2023/09/03 00:36:25;;;;;;;8.18;5.55;;;;;;;;;;5061643;28;20158;-63
2023/09/03 00:38:54;;;;;;;6.72;5.00;;;;;;;;;;5062450;28;20117;-63
2023/09/03 00:41:20;;;;;;;7.03;5.00;;;;;;;;;;5062324;28;20835;-63
2023/09/03 00:43:46;;;;;;;6.53;4.38;;;;;;;;;;5060829;28;20578;-63
2023/09/03 00:46:12;;;;;;;7.05;4.10;;;;;;;;;;5061389;28;20024;-63
2023/09/03 00:48:39;;;;;;;4.85;2.83;;;;;;;;;;5058755;28;20047;-63
2023/09/03 00:51:09;;;;;;;3.63;2.08;;;;;;;;;;5061868;28;20563;-63
2023/09/03 00:53:39;;;;;;;4.38;2.35;;;;;;;;;;5062219;28;20577;-63
2023/09/03 00:56:05;;;;;;;6.05;3.95;;;;;;;;;;5062201;28;20032;-63
2023/09/03 00:58:31;;;;;;;6.57;4.55;;;;;;;;;;5060969;28;20546;-63
2023/09/03 01:00:58;;;;;;;4.35;2.65;;;;;;;;;;5059869;28;20619;-63
2023/09/03 01:03:26;;;;;;;4.00;2.40;;;;;;;;;;5061975;28;20035;-63
2023/09/03 01:05:54;;;;;;;4.10;2.58;;;;;;;;;;5061120;28;20033;-63
2023/09/03 01:08:21;;;;;;;5.63;3.30;;;;;;;;;;5062405;28;20032;-63
2023/09/03 01:11:08;;;;;;;7.00;3.97;;;;;;;;;;5060218;28;20032;-63
2023/09/03 01:13:44;;;;;;;7.38;4.60;;;;;;;;;;5062207;28;20093;-63
2023/09/03 01:16:18;;;;;;;6.40;4.78;;;;;;;;;;5062454;28;20025;-63
2023/09/03 01:18:44;;;;;;;8.15;5.20;;;;;;;;;;5061560;28;20517;-63
2023/09/03 01:21:29;;;;;;;5.75;4.03;;;;;;;;;;5060632;28;20028;-63
2023/09/03 01:23:55;;;;;;;8.38;4.10;;;;;;;;;;5061406;28;20032;-63
2023/09/03 01:26:39;;;;;;;6.97;4.03;;;;;;;;;;5061637;28;20102;-63
2023/09/03 01:29:05;;;;;;;;;;;;;;;;;;5062318;28;20111;-63
2023/09/03 01:31:31;;;;;;;5.68;3.65;;;;;;;;;;5060792;28;19916;-63
2023/09/03 01:34:02;;;;;;;12.40;4.05;;;;;;;;;;5061906;28;20053;-63
2023/09/03 01:36:29;;;;;;;5.10;3.40;;;;;;;;;;5061075;28;20497;-63
2023/09/03 01:38:55;;;;;;;5.72;4.05;;;;;;;;;;5061590;28;20047;-63
2023/09/03 01:41:21;;;;;;;9.40;3.75;;;;;;;;;;5060304;28;20039;-63
2023/09/03 01:43:47;;;;;;;6.07;4.68;;;;;;;;;;5061843;28;20047;-63
2023/09/03 01:46:40;;;;;;;9.02;5.35;;;;;;;;;;5059367;28;20043;-63
2023/09/03 01:49:12;;;;;;;8.07;4.45;;;;;;;;;;5058832;28;21848;-63
2023/09/03 01:52:02;;;;;;;9.77;5.82;;;;;;;;;;5058647;28;20135;-63
2023/09/03 01:54:31;;;;;;;9.20;6.03;;;;;;;;;;5049162;28;20590;-63
2023/09/03 01:57:09;;;;;;;8.60;6.78;;;;;;;;;;5059332;28;20032;-63
2023/09/03 01:59:46;;;;;;;8.38;6.97;;;;;;;;;;5063568;28;20823;-63
2023/09/03 02:02:13;;;;;;;8.20;6.60;;;;;;;;;;5067634;28;20035;-63
2023/09/03 02:04:39;;;;;;;8.00;6.75;;;;;;;;;;5067529;28;20032;-63
2023/09/03 02:07:05;;;;;;;8.57;7.25;;;;;;;;;;5068949;28;21007;-63
2023/09/03 02:09:32;;;;;;;9.82;7.85;;;;;;;;;;5068136;28;20040;-63
2023/09/03 02:11:58;;;;;;;8.15;6.82;;;;;;;;;;5067786;28;21449;-63
2023/09/03 02:14:26;;;;;;;9.35;7.47;;;;;;;;;;5068769;28;20032;-63
2023/09/03 02:16:52;;;;;;;8.82;7.05;;;;;;;;;;5069005;28;20043;-63
2023/09/03 02:19:18;;;;;;;9.52;7.68;;;;;;;;;;5067847;28;20036;-63
2023/09/03 02:21:44;;;;;;;9.05;7.60;;;;;;;;;;5068460;28;20028;-63
2023/09/03 02:24:10;;;;;;;8.02;6.45;;;;;;;;;;5069137;28;20032;-63
2023/09/03 02:26:43;;;;;;;10.93;7.60;;;;;;;;;;5067393;28;20047;-63
2023/09/03 02:29:09;;;;;;;8.05;6.38;;;;;;;;;;5068828;28;20131;-63
2023/09/03 02:31:36;;;;;;;9.80;7.82;;;;;;;;;;5068934;28;20039;-63
2023/09/03 02:34:06;;;;;;;8.27;6.88;;;;;;;;;;5068689;28;20035;-62
2023/09/03 02:36:34;;;;;;;12.00;7.80;;;;;;;;;;5068257;28;20040;-62
2023/09/03 02:39:03;;;;;;;8.88;6.70;;;;;;;;;;5069067;28;21713;-63
2023/09/03 02:41:32;;;;;;;8.57;7.00;;;;;;;;;;5067071;28;20939;-63
2023/09/03 02:43:59;;;;;;;9.93;7.13;;;;;;;;;;5068215;28;21455;-63
2023/09/03 02:46:26;;;;;;;8.77;7.35;;;;;;;;;;5068121;28;20280;-63
2023/09/03 02:48:52;;;;;;;9.05;6.25;;;;;;;;;;5067185;28;20046;-63
2023/09/03 02:51:18;;;;;;;9.45;7.82;;;;;;;;;;5066675;28;20125;-63
2023/09/03 02:53:45;;;;;;;8.85;7.10;;;;;;;;;;5067813;28;20564;-63
2023/09/03 02:56:13;;;;;;;8.75;7.40;;;;;;;;;;5068155;28;20151;-63
2023/09/03 02:58:39;;;;;;;8.75;6.65;;;;;;;;;;5068103;28;20129;-63
2023/09/03 03:01:09;;;;;;;11.00;7.72;;;;;;;;;;5067495;28;20028;-63
2023/09/03 03:03:38;;;;;;;9.70;8.57;;;;;;;;;;5067449;28;20024;-63
2023/09/03 03:06:04;;;;;;;9.73;7.25;;;;;;;;;;5067878;28;20035;-63
2023/09/03 03:08:30;;;;;;;10.13;8.07;;;;;;;;;;5066467;28;20024;-63
2023/09/03 03:11:11;;;;;;;9.50;7.88;;;;;;;;;;5065589;28;20032;-63
2023/09/03 03:13:40;;;;;;;9.75;8.00;;;;;;;;;;5064908;28;20028;-63
2023/09/03 03:16:06;;;;;;;9.07;7.15;;;;;;;;;;5065117;28;20039;-63
2023/09/03 03:18:34;;;;;;;9.68;7.38;;;;;;;;;;5063989;28;20530;-63
2023/09/03 03:21:07;;;;;;;8.80;7.80;;;;;;;;;;5064688;28;20024;-63
2023/09/03 03:23:34;;;;;;;8.98;6.70;;;;;;;;;;5063977;28;20024;-62
2023/09/03 03:26:00;;;;;;;10.63;4.18;;;;;;;;;;5065657;28;20027;-62
2023/09/03 03:28:26;;;;;;;4.43;2.90;;;;;;;;;;5063930;28;20085;-63
2023/09/03 03:30:52;;;;;;;8.02;3.53;;;;;;;;;;5063779;28;20045;-63
2023/09/03 03:33:18;;;;;;;5.65;3.17;;;;;;;;;;5063966;28;20031;-63
2023/09/03 03:35:44;;;;;;;21.55;2.70;;;;;;;;;;5065107;28;20043;-63
2023/09/03 03:38:10;;;;;;;26.73;2.50;;;;;;;;;;5064832;28;20502;-63
2023/09/03 03:40:36;;;;;;;4.07;2.42;;;;;;;;;;5063088;28;20071;-62
2023/09/03 03:43:05;;;;;;;3.28;2.13;;;;;;;;;;5063845;28;20047;-62
2023/09/03 03:45:33;;;;;;;4.90;3.00;;;;;;;;;;5063566;28;20036;-62
2023/09/03 03:47:59;;;;;;;4.80;3.20;;;;;;;;;;5064795;28;20032;-63
2023/09/03 03:50:25;;;;;;;5.18;3.05;;;;;;;;;;5063777;28;20046;-63
2023/09/03 03:52:51;;;;;;;4.57;2.80;;;;;;;;;;5063933;28;20040;-63
2023/09/03 03:55:17;;;;;;;5.70;3.00;;;;;;;;;;5059427;28;20036;-63
2023/09/03 03:57:43;;;;;;;6.47;4.20;;;;;;;;;;5062231;28;20036;-64
2023/09/03 04:00:09;;;;;;;7.45;4.40;;;;;;;;;;5063116;28;20156;-63
2023/09/03 04:02:35;;;;;;;6.55;4.45;;;;;;;;;;5062832;28;20039;-63
2023/09/03 04:05:01;;;;;;;6.80;4.80;;;;;;;;;;5062503;28;20073;-63
2023/09/03 04:07:28;;;;;;;11.80;4.57;;;;;;;;;;5063223;28;20033;-63
2023/09/03 04:09:54;;;;;;;7.50;5.30;;;;;;;;;;5063196;28;20024;-63
2023/09/03 04:12:20;;;;;;;7.80;5.20;;;;;;;;;;5063469;28;20036;-63
2023/09/03 04:14:46;;;;;;;7.40;5.38;;;;;;;;;;5061171;28;20662;-63
2023/09/03 04:17:12;;;;;;;10.43;6.10;;;;;;;;;;5062855;28;20044;-63
2023/09/03 04:19:40;;;;;;;8.60;5.72;;;;;;;;;;5063644;28;20229;-62
2023/09/03 04:22:06;;;;;;;9.32;6.97;;;;;;;;;;5062620;28;20040;-62
2023/09/03 04:24:32;;;;;;;11.90;7.95;;;;;;;;;;5063278;28;20153;-63
2023/09/03 04:26:58;;;;;;;12.30;8.30;;;;;;;;;;5063129;28;20032;-62
2023/09/03 04:29:24;;;;;;;6.93;3.70;;;;;;;;;;5064226;28;20036;-63
2023/09/03 04:31:50;;;;;;;3.15;1.83;;;;;;;;;;5063665;28;20036;-63
2023/09/03 04:34:16;;;;;;;2.13;1.00;;;;;;;;;;5063468;28;20036;-62
2023/09/03 04:36:42;;;;;;;1.75;1.20;;;;;;;;;;5062860;28;20032;-63
2023/09/03 04:39:08;;;;;;;1.55;1.10;;;;;;;;;;5062223;28;20039;-62
2023/09/03 04:41:34;;;;;;;2.40;1.20;;;;;;;;;;5062320;28;20121;-63
2023/09/03 04:44:07;;;;;;;2.03;1.38;;;;;;;;;;5062528;28;20028;-63
2023/09/03 04:46:33;;;;;;;3.25;1.27;;;;;;;;;;5063239;28;20047;-62
2023/09/03 04:48:59;;;;;;;2.20;1.40;;;;;;;;;;5061412;28;20036;-63
2023/09/03 04:51:25;;;;;;;2.80;1.58;;;;;;;;;;5062386;28;20066;-62
2023/09/03 04:53:52;;;;;;;3.20;1.80;;;;;;;;;;5062843;28;20100;-63
2023/09/03 04:56:18;;;;;;;2.97;1.92;;;;;;;;;;5062522;28;20060;-63
2023/09/03 04:58:44;;;;;;;3.47;2.08;;;;;;;;;;5063593;28;20099;-63
2023/09/03 05:01:16;;;;;;;3.20;1.75;;;;;;;;;;5062702;28;20031;-63
2023/09/03 05:03:43;;;;;;;5.03;2.20;;;;;;;;;;5062673;28;20432;-63
2023/09/03 05:06:15;;;;;;;4.55;2.63;;;;;;;;;;5062470;28;20483;-63
2023/09/03 05:08:42;;;;;;;4.13;2.35;;;;;;;;;;5063423;28;20039;-62
2023/09/03 05:11:11;;;;;;;3.70;2.40;;;;;;;;;;5060448;28;20032;-63
2023/09/03 05:13:37;;;;;;;3.05;2.08;;;;;;;;;;5062013;28;20055;-63
2023/09/03 05:16:04;;;;;;;3.13;2.30;;;;;;;;;;5062665;28;20024;-68
2023/09/03 05:18:30;;;;;;;3.05;2.10;;;;;;;;;;5061967;28;20966;-68
2023/09/03 05:20:57;;;;;;;3.88;2.20;;;;;;;;;;5062125;28;20054;-68
2023/09/03 05:23:25;;;;;;;4.60;2.65;;;;;;;;;;5061485;28;20028;-68
2023/09/03 05:25:51;;;;;;;7.28;2.20;;;;;;;;;;5062672;28;20398;-68
2023/09/03 05:28:17;;;;;;;4.18;2.67;;;;;;;;;;5062752;28;20589;-68
2023/09/03 05:30:43;;;;;;;3.92;2.65;;;;;;;;;;5062921;28;21887;-68
2023/09/03 05:33:09;;;;;;;3.10;2.03;;;;;;;;;;5063126;28;20044;-68
2023/09/03 05:35:35;;;;;;;3.78;2.35;;;;;;;;;;5063476;28;20036;-68
2023/09/03 05:38:01;;;;;;;4.72;2.70;;;;;;;;;;5063540;28;20032;-68
2023/09/03 05:40:28;;;;;;;4.25;2.47;;;;;;;;;;5063127;28;20033;-68
2023/09/03 05:42:54;;;;;;;3.38;2.40;;;;;;;;;;5062490;28;20033;-68
2023/09/03 05:45:20;;;;;;;4.05;2.40;;;;;;;;;;5062607;28;20040;-68
2023/09/03 05:47:46;;;;;;;3.65;2.33;;;;;;;;;;5062774;28;20035;-68
2023/09/03 05:50:12;;;;;;;6.35;2.65;;;;;;;;;;5062533;28;20047;-68
2023/09/03 05:52:38;;;;;;;3.50;2.40;;;;;;;;;;5062546;28;20032;-68
2023/09/03 05:55:04;;;;;;;3.88;2.53;;;;;;;;;;5063537;28;20028;-68
2023/09/03 05:57:30;;;;;;;3.22;2.25;;;;;;;;;;5062355;28;20518;-68
2023/09/03 05:59:56;;;;;;;3.33;2.20;;;;;;;;;;5063502;28;20826;-68
2023/09/03 06:02:26;;;;;;;3.35;2.20;;;;;;;;;;5060759;28;20024;-68
2023/09/03 06:04:52;;;;;;;3.38;2.10;;;;;;;;;;5061474;28;21824;-68
2023/09/03 06:07:18;;;;;;;3.35;2.40;;;;;;;;;;5060932;28;20490;-68
2023/09/03 06:09:47;;;;;;;3.80;2.45;;;;;;;;;;5061678;28;20074;-68
2023/09/03 06:12:14;;;;;;;3.47;2.22;;;;;;;;;;5062462;28;20672;-69
2023/09/03 06:14:40;;;;;;;4.63;3.03;;;;;;;;;;5062390;28;20040;-68
2023/09/03 06:17:06;;;;;;;7.07;5.35;;;;;;;;;;5062481;28;20589;-68
2023/09/03 06:19:32;;;;;;;6.47;5.00;;;;;;;;;;5062530;28;20032;-68
2023/09/03 06:21:59;;;;;;;8.40;7.05;;;;;;;;;;5062678;28;20032;-68
2023/09/03 06:24:25;;;;;;;9.55;7.88;;;;;;;;;;5063375;28;20076;-68
2023/09/03 06:26:51;;;;;;;9.95;7.25;;;;;;;;;;5063075;28;20024;-68
2023/09/03 06:29:17;;;;;;;9.98;7.35;;;;;;;;;;5063658;28;20039;-68
2023/09/03 06:31:43;;;;;;;10.70;7.55;;;;;;;;;;5062740;28;20139;-68
2023/09/03 06:34:09;;;;;;;9.25;7.68;;;;;;;;;;5062233;28;20060;-68
2023/09/03 06:36:35;;;;;;;10.15;8.25;;;;;;;;;;5063236;28;20094;-68
2023/09/03 06:39:02;;;;;;;9.88;8.10;;;;;;;;;;5061306;28;20044;-68
2023/09/03 06:41:28;;;;;;;8.60;7.70;;;;;;;;;;5062589;28;21861;-68
2023/09/03 06:43:55;;;;;;;10.98;7.97;;;;;;;;;;5062734;28;20052;-68
2023/09/03 06:46:21;;;;;;;11.02;7.40;;;;;;;;;;5062866;28;20118;-69
2023/09/03 06:48:47;;;;;;;10.07;7.60;;;;;;;;;;5066204;28;20048;-68
2023/09/03 06:51:13;;;;;;;11.70;8.07;;;;;;;;;;5065466;28;20028;-68
2023/09/03 06:53:40;;;;;;;9.05;6.75;;;;;;;;;;5065592;28;20016;-69
2023/09/03 06:56:06;;;;;;;9.13;7.18;;;;;;;;;;5064939;28;20396;-68
2023/09/03 06:58:32;;;;;;;10.10;7.13;;;;;;;;;;5066274;28;20073;-68
2023/09/03 07:00:58;;;;;;;9.98;7.35;;;;;;;;;;5065164;28;20063;-68
2023/09/03 07:03:24;;;;;;;8.57;7.13;;;;;;;;;;5066629;28;20137;-68
2023/09/03 07:05:50;;;;;;;9.90;7.18;;;;;;;;;;5066168;28;20063;-68
2023/09/03 07:08:16;;;;;;;11.45;7.10;;;;;;;;;;5066268;28;20028;-68
2023/09/03 07:10:42;;;;;;;10.73;7.63;;;;;;;;;;5066232;28;20193;-68
2023/09/03 07:13:10;;;;;;;9.10;7.38;;;;;;;;;;5065997;28;20032;-68
2023/09/03 07:15:37;;;;;;;9.45;7.22;;;;;;;;;;5066783;28;20039;-68
2023/09/03 07:18:03;;;;;;;10.77;7.25;;;;;;;;;;5065632;28;20091;-68
2023/09/03 07:20:29;;;;;;;9.23;6.85;;;;;;;;;;5066099;28;20568;-68
2023/09/03 07:22:55;;;;;;;8.85;5.88;;;;;;;;;;5065966;28;20047;-68
2023/09/03 07:25:25;;;;;;;7.35;5.65;;;;;;;;;;5065692;28;20032;-69
2023/09/03 07:27:51;;;;;;;8.18;5.35;;;;;;;;;;5064962;28;20160;-69
2023/09/03 07:30:17;;;;;;;7.82;5.43;;;;;;;;;;5066118;28;20062;-68
2023/09/03 07:32:43;;;;;;;9.70;5.43;;;;;;;;;;5066341;28;20028;-68
2023/09/03 07:35:12;;;;;;;8.18;4.53;;;;;;;;;;5065674;28;20654;-68
2023/09/03 07:37:43;;;;;;;6.97;4.75;;;;;;;;;;5065640;28;20043;-68
2023/09/03 07:40:09;;;;;;;6.60;4.03;;;;;;;;;;5066174;28;20055;-69
2023/09/03 07:42:38;;;;;;;8.50;3.50;;;;;;;;;;5065816;28;20333;-68
2023/09/03 07:45:04;;;;;;;7.03;2.90;;;;;;;;;;5065625;28;20074;-69
2023/09/03 07:47:31;;;;;;;5.15;2.92;;;;;;;;;;5065685;28;20024;-69
2023/09/03 07:49:57;;;;;;;7.72;3.20;;;;;;;;;;5065800;28;20032;-69
2023/09/03 07:52:23;;;;;;;6.25;3.30;;;;;;;;;;5066096;28;20036;-69
2023/09/03 07:54:49;;;;;;;6.50;3.20;;;;;;;;;;5066173;28;20078;-69
2023/09/03 07:57:16;;;;;;;5.75;3.35;;;;;;;;;;5064639;28;20447;-69
2023/09/03 07:59:42;;;;;;;7.22;2.80;;;;;;;;;;5065645;28;20040;-69
2023/09/03 08:02:08;;;;;;;4.90;2.67;;;;;;;;;;5063760;28;20474;-68
2023/09/03 08:04:34;;;;;;;5.20;2.70;;;;;;;;;;5064514;28;20110;-69
2023/09/03 08:07:03;;;;;;;6.00;3.08;;;;;;;;;;5065268;28;20539;-68
2023/09/03 08:09:29;;;;;;;5.28;3.05;;;;;;;;;;5063947;28;20036;-69
2023/09/03 08:11:55;;;;;;;7.35;3.05;;;;;;;;;;5063949;28;20723;-69
2023/09/03 08:14:24;;;;;;;8.52;3.70;;;;;;;;;;5064294;28;20118;-68
2023/09/03 08:16:50;;;;;;;9.02;3.40;;;;;;;;;;5064755;28;20163;-69
2023/09/03 08:19:17;;;;;;;6.10;3.22;;;;;;;;;;5064022;28;20692;-69
2023/09/03 08:21:44;;;;;;;9.13;4.28;;;;;;;;;;5060653;28;20028;-69
2023/09/03 08:24:10;;;;;;;5.57;3.40;;;;;;;;;;5064559;28;20050;-69
2023/09/03 08:26:37;;;;;;;9.60;3.90;;;;;;;;;;5064407;28;20056;-69
2023/09/03 08:29:03;;;;;;;7.10;2.83;;;;;;;;;;5053251;28;20437;-69
2023/09/03 08:31:29;;;;;;;7.30;3.30;;;;;;;;;;5054512;28;20069;-69
2023/09/03 08:33:56;;;;;;;6.05;3.08;;;;;;;;;;5052094;28;20110;-69
2023/09/03 08:36:25;;;;;;;7.47;3.55;;;;;;;;;;5052877;28;20106;-69
2023/09/03 08:38:51;;;;;;;6.00;3.45;;;;;;;;;;5053554;28;20030;-69
2023/09/03 08:41:19;;;;;;;7.57;4.38;;;;;;;;;;5054281;28;20568;-69
2023/09/03 08:43:49;;;;;;;6.43;3.78;;;;;;;;;;5053109;28;20027;-69
2023/09/03 08:46:15;;;;;;;10.30;4.13;;;;;;;;;;5055284;28;20032;-69
2023/09/03 08:48:42;;;;;;;7.80;3.83;;;;;;;;;;5054852;28;20043;-69
2023/09/03 08:51:09;;;;;;;9.05;3.95;;;;;;;;;;5054977;28;20028;-69
2023/09/03 08:53:36;;;;;;;6.75;3.83;;;;;;;;;;5054563;28;20033;-69
2023/09/03 08:56:02;;;;;;;7.40;4.38;;;;;;;;;;5053667;28;20118;-69
2023/09/03 08:58:28;;;;;;;8.23;3.83;;;;;;;;;;5055431;28;20035;-69
2023/09/03 09:00:55;;;;;;;6.78;3.97;;;;;;;;;;5049880;28;20036;-69
2023/09/03 09:03:24;;;;;;;7.20;2.88;;;;;;;;;;5054758;28;20507;-69
2023/09/03 09:05:54;;;;;;;6.85;3.38;;;;;;;;;;5054160;28;20020;-69
2023/09/03 09:08:21;;;;;;;7.40;3.03;;;;;;;;;;5054434;28;20143;-69
2023/09/03 09:10:50;;;;;;;6.32;3.15;;;;;;;;;;5054926;28;20398;-69
2023/09/03 09:13:21;;;;;;;4.43;2.58;;;;;;;;;;5053603;28;20570;-69
2023/09/03 09:15:47;;;;;;;6.60;2.60;;;;;;;;;;5052730;28;20040;-69
2023/09/03 09:18:14;;;;;;;5.65;2.95;;;;;;;;;;5054101;28;20059;-69
2023/09/03 09:20:40;;;;;;;6.43;2.33;;;;;;;;;;5054032;28;20067;-69
2023/09/03 09:23:09;;;;;;;4.72;2.30;;;;;;;;;;5052070;28;20059;-63
2023/09/03 09:25:36;;;;;;;5.35;2.88;;;;;;;;;;5054547;28;20024;-63
2023/09/03 09:28:10;;;;;;;6.65;2.38;;;;;;;;;;5054865;28;20171;-63
2023/09/03 09:30:36;;;;;;;5.72;2.05;;;;;;;;;;5054961;28;20379;-63
2023/09/03 09:33:05;;;;;;;3.55;1.60;;;;;;;;;;5054799;28;20036;-63
2023/09/03 09:35:32;;;;;;;5.80;2.33;;;;;;;;;;5054643;28;20123;-63
2023/09/03 09:38:05;;;;;;;5.88;2.03;;;;;;;;;;5054654;28;20039;-63
2023/09/03 09:40:31;;;;;;;5.28;2.13;;;;;;;;;;5052407;28;20086;-63
2023/09/03 09:42:59;;;;;;;5.82;2.28;;;;;;;;;;5054151;28;20082;-63
2023/09/03 09:45:25;;;;;;;4.70;1.70;;;;;;;;;;5053497;28;20065;-63
2023/09/03 09:48:06;;;;;;;5.25;1.80;;;;;;;;;;5053726;28;20570;-70
2023/09/03 09:50:33;;;;;;;3.72;1.48;;;;;;;;;;5053891;28;20068;-70
2023/09/03 09:53:00;;;;;;;4.22;1.70;;;;;;;;;;5053695;28;20028;-69
2023/09/03 09:55:31;;;;;;;4.05;1.65;;;;;;;;;;5053046;28;20028;-69
2023/09/03 09:57:57;;;;;;;4.72;2.13;;;;;;;;;;5052827;28;20033;-69
2023/09/03 10:00:33;;;;;;;4.85;2.10;;;;;;;;;;5052467;28;20060;-69
2023/09/03 10:02:59;;;;;;;4.97;1.80;;;;;;;;;;5054168;28;20048;-69
2023/09/03 10:05:26;;;;;;;3.75;1.63;;;;;;;;;;5054219;28;20039;-69
2023/09/03 10:07:53;;;;;;;5.13;1.80;;;;;;;;;;5054027;28;20032;-69
2023/09/03 10:10:20;;;;;;;3.42;1.73;;;;;;;;;;5054151;28;20143;-69
2023/09/03 10:12:46;;;;;;;5.35;1.90;;;;;;;;;;5053529;28;20066;-69
2023/09/03 10:15:13;;;;;;;3.83;1.98;;;;;;;;;;5053197;28;20044;-69
2023/09/03 10:17:40;;;;;;;5.25;2.00;;;;;;;;;;5052378;28;20037;-69
2023/09/03 10:20:09;;;;;;;3.22;1.58;;;;;;;;;;5052311;28;20051;-69
2023/09/03 10:22:37;;;;;;;4.57;1.80;;;;;;;;;;5055211;28;20809;-70
2023/09/03 10:25:06;;;;;;;6.15;1.90;;;;;;;;;;5056848;28;21297;-69
2023/09/03 10:27:37;;;;;;;5.15;2.10;;;;;;;;;;5055937;28;20047;-69
2023/09/03 10:30:05;;;;;;;4.25;1.80;;;;;;;;;;5056651;28;20044;-69
2023/09/03 10:32:32;;;;;;;3.90;1.75;;;;;;;;;;5058437;28;21300;-69
2023/09/03 10:34:58;;;;;;;6.07;1.55;;;;;;;;;;5057952;28;20143;-69
2023/09/03 10:37:40;;;;;;;6.47;1.90;;;;;;;;;;5041030;28;20511;-70
2023/09/03 10:40:22;;;;;;;2.63;1.27;;;;;;;;;;5057348;28;20121;-69
2023/09/03 10:42:48;;;;;;;2.28;1.20;;;;;;;;;;5058202;28;20052;-69
2023/09/03 10:45:15;;;;;;;4.20;1.50;;;;;;;;;;5057296;28;20031;-69
2023/09/03 10:47:56;;;;;;;2.72;1.20;;;;;;;;;;5058435;28;20024;-69
2023/09/03 10:50:43;;;;;;;3.15;1.25;;;;;;;;;;5057771;28;20036;-69
2023/09/03 10:53:10;;;;;;;3.53;1.50;;;;;;;;;;5057412;28;20218;-69
2023/09/03 10:55:36;;;;;;;3.63;1.67;;;;;;;;;;5057841;28;20059;-69
2023/09/03 10:58:30;;;;;;;3.65;1.35;;;;;;;;;;5057501;28;20781;-69
2023/09/03 11:01:30;;;;;;;4.28;1.75;;;;;;;;;;5056411;28;20550;-63
2023/09/03 11:03:57;;;;;;;3.63;1.60;;;;;;;;;;5044638;28;20068;-63
2023/09/03 11:06:24;;;;;;;3.95;1.40;;;;;;;;;;5056068;28;20032;-63
2023/09/03 11:08:59;;;;;;;3.97;1.30;;;;;;;;;;5056479;28;20020;-63
2023/09/03 11:11:30;;;;;;;4.13;1.42;;;;;;;;;;5057284;28;20119;-63
2023/09/03 11:13:57;;;;;;;5.18;1.73;;;;;;;;;;5056989;28;20124;-63
2023/09/03 11:16:29;;;;;;;4.47;1.50;;;;;;;;;;5055662;28;20647;-63
2023/09/03 11:18:55;;;;;;;4.72;1.52;;;;;;;;;;5055857;28;20059;-63
2023/09/03 11:21:25;;;;;;;4.55;1.35;;;;;;;;;;5056526;28;20024;-63
2023/09/03 11:24:08;;;;;;;5.25;1.60;;;;;;;;;;5056597;28;20121;-63
2023/09/03 11:26:35;;;;;;;1.95;1.00;;;;;;;;;;5057169;28;20554;-63
2023/09/03 11:29:02;;;;;;;5.93;1.60;;;;;;;;;;5056841;28;20051;-63
2023/09/03 11:31:28;;;;;;;4.45;1.73;;;;;;;;;;5055493;28;20035;-63
2023/09/03 11:33:57;;;;;;;4.40;1.40;;;;;;;;;;5056850;28;20036;-63
2023/09/03 11:36:26;;;;;;;4.38;1.60;;;;;;;;;;5056919;28;20533;-63
2023/09/03 11:38:52;;;;;;;3.58;1.10;;;;;;;;;;5056747;28;20768;-63
2023/09/03 11:41:18;;;;;;;4.47;1.38;;;;;;;;;;5053926;28;20036;-63
2023/09/03 11:43:46;;;;;;;2.83;1.20;;;;;;;;;;5053989;28;20028;-63
2023/09/03 11:46:16;;;;;;;2.80;0.90;;;;;;;;;;5056862;28;20503;-63
2023/09/03 11:48:47;;;;;;;3.28;1.23;;;;;;;;;;5054748;28;20044;-63
2023/09/03 11:51:21;;;;;;;3.13;1.10;;;;;;;;;;5056631;28;20032;-63
2023/09/03 11:53:49;;;;;;;4.25;1.30;;;;;;;;;;5056210;28;20040;-63
2023/09/03 11:56:16;;;;;;;6.68;1.70;;;;;;;;;;5056083;28;20043;-63
2023/09/03 11:58:43;;;;;;;3.80;1.08;;;;;;;;;;5055249;28;20037;-64
2023/09/03 12:01:09;;;;;;;2.70;1.10;;;;;;;;;;5056074;28;20073;-63
2023/09/03 12:03:38;;;;;;;2.85;1.10;;;;;;;;;;5055504;28;20024;-63
2023/09/03 12:06:04;;;;;;;3.78;1.17;;;;;;;;;;5055565;28;20025;-63
2023/09/03 12:08:32;;;;;;;2.40;1.00;;;;;;;;;;5056094;28;20047;-63
2023/09/03 12:10:58;;;;;;;5.38;1.33;;;;;;;;;;5055500;28;20108;-63
2023/09/03 12:13:34;;;;;;;5.80;1.30;;;;;;;;;;5051746;28;20040;-63
2023/09/03 12:16:09;;;;;;;2.83;1.17;;;;;;;;;;5055671;28;20059;-63
2023/09/03 12:18:35;;;;;;;4.43;1.10;;;;;;;;;;5055833;28;20179;-63
2023/09/03 12:21:01;;;;;;;3.85;1.30;;;;;;;;;;5055115;28;20044;-63
2023/09/03 12:23:27;;;;;;;3.55;1.65;;;;;;;;;;5055870;28;20047;-63
2023/09/03 12:25:53;;;;;;;2.20;1.10;;;;;;;;;;5055502;28;20073;-63
2023/09/03 12:28:32;;;;;;;3.55;1.00;;;;;;;;;;5052224;28;20107;-63
2023/09/03 12:30:59;;;;;;;3.30;1.25;;;;;;;;;;5053482;28;20048;-63
2023/09/03 12:33:27;;;;;;;4.32;1.33;;;;;;;;;;5054062;28;20036;-63
2023/09/03 12:36:05;;;;;;;2.80;1.10;;;;;;;;;;5054085;28;20036;-63
2023/09/03 12:38:32;;;;;;;3.38;1.25;;;;;;;;;;5053767;28;21269;-63
2023/09/03 12:40:58;;;;;;;2.88;1.20;;;;;;;;;;5055321;28;20042;-63
2023/09/03 12:43:25;;;;;;;2.90;1.02;;;;;;;;;;5054730;28;20028;-63
2023/09/03 12:45:51;;;;;;;2.33;0.95;;;;;;;;;;5055443;28;20036;-63
2023/09/03 12:48:17;;;;;;;5.68;1.55;;;;;;;;;;5054928;28;21510;-63
2023/09/03 12:50:43;;;;;;;3.30;1.35;;;;;;;;;;5055683;28;20577;-63
2023/09/03 12:53:09;;;;;;;3.38;1.00;;;;;;;;;;5053697;28;20171;-63
2023/09/03 12:55:35;;;;;;;1.40;0.73;;;;;;;;;;5055318;28;20032;-63
2023/09/03 12:58:02;;;;;;;2.33;0.95;;;;;;;;;;5055270;28;21478;-63
2023/09/03 13:00:29;;;;;;;3.20;1.30;;;;;;;;;;5055475;28;20042;-63
2023/09/03 13:02:55;;;;;;;3.58;1.05;;;;;;;;;;5055916;28;20111;-63
2023/09/03 13:05:21;;;;;;;2.35;0.80;;;;;;;;;;5055646;28;20046;-63
2023/09/03 13:07:47;;;;;;;2.03;0.95;;;;;;;;;;5055151;28;20029;-63
2023/09/03 13:10:13;;;;;;;2.00;0.80;;;;;;;;;;5055347;28;20131;-63
2023/09/03 13:12:39;;;;;;;2.17;0.90;;;;;;;;;;5054935;28;20035;-63
2023/09/03 13:15:06;;;;;;;1.77;0.63;;;;;;;;;;5055516;28;20036;-63
2023/09/03 13:17:32;;;;;;;1.98;0.73;;;;;;;;;;5055641;28;20072;-63
2023/09/03 13:19:58;;;;;;;3.47;0.93;;;;;;;;;;5055466;28;20131;-63
2023/09/03 13:22:24;;;;;;;2.08;0.80;;;;;;;;;;5053360;28;20046;-63
2023/09/03 13:24:50;;;;;;;4.22;1.38;;;;;;;;;;5054058;28;20043;-63
2023/09/03 13:27:16;;;;;;;4.03;1.45;;;;;;;;;;5054143;28;20124;-63
2023/09/03 13:29:45;;;;;;;1.23;0.77;;;;;;;;;;5053948;28;20036;-63
2023/09/03 13:32:11;;;;;;;2.92;1.02;;;;;;;;;;5054325;28;20090;-63
2023/09/03 13:34:38;;;;;;;3.47;1.30;;;;;;;;;;5055757;28;21033;-63
2023/09/03 13:37:04;;;;;;;5.97;0.93;;;;;;;;;;5053629;28;20028;-63
2023/09/03 13:39:32;;;;;;;3.35;1.20;;;;;;;;;;5052533;28;20040;-63
2023/09/03 13:41:58;;;;;;;3.50;0.82;;;;;;;;;;5053179;28;20032;-63
2023/09/03 13:44:24;;;;;;;3.05;0.95;;;;;;;;;;5053855;28;20094;-63
2023/09/03 13:46:50;;;;;;;1.33;0.70;;;;;;;;;;5054648;28;20395;-63
2023/09/03 13:49:17;;;;;;;3.75;1.30;;;;;;;;;;5054523;28;20070;-63
2023/09/03 13:51:43;;;;;;;1.77;0.95;;;;;;;;;;5054015;28;20039;-63
2023/09/03 13:54:10;;;;;;;4.00;1.70;;;;;;;;;;5054924;28;20040;-63
2023/09/03 13:56:36;;;;;;;8.65;4.68;;;;;;;;;;5054426;28;20044;-63
2023/09/03 13:59:02;;;;;;;4.97;2.00;;;;;;;;;;5053547;28;20062;-63
2023/09/03 14:01:29;;;;;;;5.07;1.80;;;;;;;;;;5055327;28;20036;-63
2023/09/03 14:03:55;;;;;;;4.40;1.50;;;;;;;;;;5054708;28;20498;-63
2023/09/03 14:06:21;;;;;;;2.72;1.10;;;;;;;;;;5054760;28;20077;-63
2023/09/03 14:08:47;;;;;;;2.95;1.30;;;;;;;;;;5055044;28;20229;-63
2023/09/03 14:11:13;;;;;;;3.10;1.20;;;;;;;;;;5036543;28;20033;-63
2023/09/03 14:13:39;;;;;;;3.15;0.90;;;;;;;;;;5054756;28;20043;-63
2023/09/03 14:16:13;;;;;;;3.20;0.90;;;;;;;;;;5051611;28;20050;-63
2023/09/03 14:18:39;;;;;;;2.47;0.80;;;;;;;;;;5053869;28;20079;-63
2023/09/03 14:21:08;;;;;;;2.58;1.00;;;;;;;;;;5058320;28;20114;-69
2023/09/03 14:23:34;;;;;;;2.25;1.13;;;;;;;;;;5053464;28;20028;-69
2023/09/03 14:26:03;;;;;;;2.03;1.13;;;;;;;;;;5052590;28;20060;-69
2023/09/03 14:28:29;;;;;;;3.00;1.17;;;;;;;;;;5052903;28;20083;-69
2023/09/03 14:31:00;;;;;;;3.10;1.02;;;;;;;;;;5050718;28;20036;-69
2023/09/03 14:33:26;;;;;;;1.88;0.80;;;;;;;;;;5053935;28;20032;-69
2023/09/03 14:35:52;;;;;;;2.45;1.08;;;;;;;;;;5052598;28;20044;-69
2023/09/03 14:38:18;;;;;;;4.05;1.20;;;;;;;;;;5050503;28;20032;-69
2023/09/03 14:40:50;;;;;;;4.10;1.20;;;;;;;;;;5048437;28;20156;-69
2023/09/03 14:43:17;;;;;;;5.20;1.02;;;;;;;;;;5053108;28;20025;-69
2023/09/03 14:45:43;;;;;;;3.90;1.05;;;;;;;;;;5052124;28;20036;-69
2023/09/03 14:48:09;;;;;;;2.72;1.00;;;;;;;;;;5050425;28;20138;-69